Time;durP1;ratioP1;P1;durP2;ratioP2;P2;SDS_P1;SDS_P2;PMS_P1;PMS_P2;Temp;Humidity;BMP_temperature;BMP_pressure;BME280_temperature;BME280_humidity;BME280_pressure;Samples;Min_cycle;Max_cycle;Signal;HPM_P1;HPM_P2
2022/04/12 00:00:40;;;;;;;7.93;7.23;;;;;;;4.68;83.15;100495.56;5072431;28;20189;-71
2022/04/12 00:03:07;;;;;;;8.63;7.83;;;;;;;4.36;84.13;100493.09;5072169;28;20693;-73
2022/04/12 00:05:33;;;;;;;8.40;7.70;;;;;;;4.00;86.63;100492.22;5072211;28;20638;-72
2022/04/12 00:07:59;;;;;;;9.87;8.97;;;;;;;3.93;87.75;100487.06;5071943;28;20671;-72
2022/04/12 00:10:26;;;;;;;9.63;8.77;;;;;;;4.03;88.23;100492.47;5071874;28;20202;-72
2022/04/12 00:12:51;;;;;;;8.20;7.40;;;;;;;4.11;88.19;100496.56;5071246;28;20183;-73
2022/04/12 00:15:16;;;;;;;8.23;7.63;;;;;;;4.21;88.32;100493.09;5071869;28;20255;-72
2022/04/12 00:20:26;;;;;;;8.03;7.33;;;;;;;4.21;88.55;100493.09;5072094;28;20589;-72
2022/04/12 00:22:56;;;;;;;8.60;7.87;;;;;;;4.18;88.70;100494.41;5071783;28;20258;-71
2022/04/12 00:25:22;;;;;;;8.13;7.43;;;;;;;4.22;88.78;100482.00;5070534;28;20236;-72
2022/04/12 00:27:49;;;;;;;8.53;7.83;;;;;;;4.24;89.20;100477.13;5072462;28;20258;-72
2022/04/12 00:30:14;;;;;;;8.60;7.90;;;;;;;4.25;89.15;100483.34;5073321;28;20198;-71
2022/04/12 00:32:40;;;;;;;8.87;8.17;;;;;;;4.22;89.48;100484.69;5072062;28;20283;-72
2022/04/12 00:35:06;;;;;;;8.37;7.63;;;;;;;4.12;88.99;100484.66;5071545;28;20171;-72
2022/04/12 00:37:32;;;;;;;8.63;7.93;;;;;;;4.15;88.30;100476.84;5071344;28;20224;-71
2022/04/12 00:39:57;;;;;;;11.60;8.37;;;;;;;4.21;87.55;100476.84;5071458;28;20590;-72
2022/04/12 00:42:23;;;;;;;9.87;8.60;;;;;;;4.37;86.95;100471.19;5071684;28;20175;-72
2022/04/12 00:44:48;;;;;;;8.93;8.00;;;;;;;4.45;86.21;100470.63;5071454;28;20178;-72
2022/04/12 00:47:14;;;;;;;9.30;8.37;;;;;;;4.40;86.16;100459.03;5071162;28;20181;-72
2022/04/12 00:49:40;;;;;;;9.57;8.63;;;;;;;4.36;86.66;100450.63;5071192;28;20261;-72
2022/04/12 00:52:07;;;;;;;9.87;8.93;;;;;;;4.34;87.12;100444.69;5071579;28;20634;-71
2022/04/12 00:54:34;;;;;;;9.80;9.00;;;;;;;4.43;87.04;100447.66;5071126;28;20312;-71
2022/04/12 00:57:00;;;;;;;9.43;8.63;;;;;;;4.53;86.50;100447.66;5070973;28;20177;-72
2022/04/12 00:59:26;;;;;;;10.50;9.70;;;;;;;4.62;86.60;100451.44;5071087;28;20247;-72
2022/04/12 01:01:51;;;;;;;8.93;8.13;;;;;;;4.48;86.06;100448.47;5071076;28;20238;-72
2022/04/12 01:04:17;;;;;;;9.47;8.67;;;;;;;4.55;86.35;100442.78;5071149;28;20729;-73
2022/04/12 01:06:43;;;;;;;9.83;8.93;;;;;;;4.44;85.81;100439.25;5069685;28;20174;-72
2022/04/12 01:09:09;;;;;;;10.43;9.03;;;;;;;4.36;86.41;100442.53;5070921;28;20652;-72
2022/04/12 01:11:35;;;;;;;9.87;9.07;;;;;;;4.22;87.02;100435.22;5070982;28;20198;-72
2022/04/12 01:14:01;;;;;;;9.37;8.47;;;;;;;4.32;87.26;100429.78;5071102;28;20223;-72
2022/04/12 01:16:27;;;;;;;10.33;9.50;;;;;;;4.23;87.49;100426.84;5070947;28;20197;-72
2022/04/12 01:18:53;;;;;;;10.57;9.47;;;;;;;4.29;88.06;100430.34;5070821;28;20253;-72
2022/04/12 01:21:20;;;;;;;8.40;7.70;;;;;;;4.29;87.78;100439.25;5071146;28;20556;-72
2022/04/12 01:24:05;;;;;;;10.40;8.23;;;;;;;4.48;87.85;100436.81;5070666;28;20170;-73
2022/04/12 01:26:30;;;;;;;8.87;7.93;;;;;;;4.54;86.62;100435.75;5070701;28;20265;-72
2022/04/12 01:28:57;;;;;;;8.87;8.07;;;;;;;4.49;85.96;100433.06;5070730;28;20254;-73
2022/04/12 01:31:26;;;;;;;8.33;7.63;;;;;;;4.39;87.16;100430.34;5070745;28;20240;-71
2022/04/12 01:33:53;;;;;;;8.80;8.03;;;;;;;4.53;86.78;100430.63;5070728;28;20177;-71
2022/04/12 01:36:19;;;;;;;8.77;7.87;;;;;;;4.10;87.63;100427.34;5070753;28;20842;-72
2022/04/12 01:38:44;;;;;;;8.57;7.80;;;;;;;4.02;87.84;100417.06;5070409;28;20205;-71
2022/04/12 01:41:10;;;;;;;7.77;7.07;;;;;;;4.10;88.07;100420.06;5070801;28;20614;-71
2022/04/12 01:43:35;;;;;;;7.97;7.17;;;;;;;4.26;87.69;100414.66;5070907;28;20178;-72
2022/04/12 01:46:00;;;;;;;8.57;7.80;;;;;;;4.24;87.18;100416.81;5070605;28;20464;-72
2022/04/12 01:48:26;;;;;;;8.33;7.60;;;;;;;3.62;88.47;100412.38;5070417;28;20251;-72
2022/04/12 01:50:51;;;;;;;8.97;8.07;;;;;;;3.50;89.87;100418.03;5070504;28;20594;-71
2022/04/12 01:53:17;;;;;;;8.10;7.40;;;;;;;3.68;90.22;100420.25;5070584;28;20202;-72
2022/04/12 01:55:43;;;;;;;8.70;7.90;;;;;;;3.74;89.49;100424.56;5070822;28;20265;-72
2022/04/12 01:58:08;;;;;;;8.43;7.70;;;;;;;3.75;89.98;100422.69;5069022;28;20265;-72
2022/04/12 02:00:36;;;;;;;9.33;8.53;;;;;;;3.24;90.89;100414.44;5070373;28;20202;-73
2022/04/12 02:03:02;;;;;;;10.87;8.30;;;;;;;3.31;91.92;100420.38;5070542;28;20324;-72
2022/04/12 02:05:27;;;;;;;9.73;7.33;;;;;;;3.26;92.66;100418.47;5070349;28;20253;-72
2022/04/12 02:07:52;;;;;;;8.77;7.87;;;;;;;3.37;92.96;100419.34;5070345;28;20177;-72
2022/04/12 02:10:20;;;;;;;7.63;6.93;;;;;;;3.13;92.85;100418.97;5070287;28;20251;-72
2022/04/12 02:12:45;;;;;;;8.53;7.83;;;;;;;3.07;93.53;100417.31;5070721;28;20181;-72
2022/04/12 02:15:11;;;;;;;10.80;8.83;;;;;;;3.03;94.42;100420.78;5070254;28;20171;-74
2022/04/12 02:17:36;;;;;;;8.20;7.40;;;;;;;3.14;94.17;100414.38;5070413;28;20183;-71
2022/04/12 02:20:01;;;;;;;8.57;7.87;;;;;;;3.05;94.17;100415.97;5070452;28;20645;-71
2022/04/12 02:22:27;;;;;;;9.17;7.97;;;;;;;3.07;93.97;100413.81;5070344;28;20214;-72
2022/04/12 02:24:52;;;;;;;8.63;7.43;;;;;;;3.15;93.87;100410.59;5070371;28;20179;-72
2022/04/12 02:27:17;;;;;;;9.87;7.80;;;;;;;3.09;93.17;100406.25;5070196;28;20537;-72
2022/04/12 02:29:43;;;;;;;8.17;7.47;;;;;;;3.10;94.26;100407.88;5070359;28;20178;-72
2022/04/12 02:32:08;;;;;;;8.13;7.47;;;;;;;3.08;93.97;100405.44;5070629;28;20183;-72
2022/04/12 02:34:34;;;;;;;7.73;7.03;;;;;;;3.21;93.12;100402.28;5070161;28;20203;-71
2022/04/12 02:36:59;;;;;;;8.50;7.70;;;;;;;3.21;92.34;100393.38;5071370;28;20179;-73
2022/04/12 02:39:25;;;;;;;7.97;7.27;;;;;;;3.22;92.22;100395.78;5071451;28;20278;-75
2022/04/12 02:41:50;;;;;;;7.67;7.00;;;;;;;3.26;91.99;100398.78;5073437;28;20221;-72
2022/04/12 02:44:16;;;;;;;10.33;8.60;;;;;;;3.27;91.48;100395.81;5073883;28;20178;-72
2022/04/12 02:46:41;;;;;;;8.30;7.47;;;;;;;3.33;91.33;100387.72;5073549;28;20333;-72
2022/04/12 02:49:07;;;;;;;7.30;6.70;;;;;;;3.35;91.16;100388.28;5073612;28;20186;-72
2022/04/12 02:51:32;;;;;;;7.97;7.10;;;;;;;3.38;90.73;100388.56;5073415;28;20252;-73
2022/04/12 02:53:58;;;;;;;7.70;7.00;;;;;;;3.35;90.69;100382.88;5073420;28;20303;-71
2022/04/12 02:56:23;;;;;;;8.27;7.53;;;;;;;3.28;91.16;100386.63;5073462;28;20178;-72
2022/04/12 02:58:48;;;;;;;8.93;7.10;;;;;;;3.32;91.17;100386.09;5073248;28;20170;-72
2022/04/12 03:01:14;;;;;;;7.20;6.50;;;;;;;3.22;91.02;100392.28;5073422;28;20175;-71
2022/04/12 03:03:39;;;;;;;7.83;7.13;;;;;;;3.26;91.42;100385.28;5073517;28;20405;-72
2022/04/12 03:06:04;;;;;;;8.53;7.73;;;;;;;3.23;91.75;100393.91;5073228;28;20193;-72
2022/04/12 03:08:30;;;;;;;7.73;6.93;;;;;;;3.27;91.67;100387.72;5073158;28;20185;-72
2022/04/12 03:10:55;;;;;;;8.30;7.60;;;;;;;3.38;91.73;100391.25;5073474;28;20206;-72
2022/04/12 03:13:21;;;;;;;9.87;7.83;;;;;;;3.46;90.87;100392.63;5073193;28;20676;-72
2022/04/12 03:15:46;;;;;;;7.80;7.10;;;;;;;3.54;90.23;100390.22;5073459;28;20312;-72
2022/04/12 03:18:11;;;;;;;7.63;6.93;;;;;;;3.54;89.63;100386.72;5073152;28;20178;-72
2022/04/12 03:20:37;;;;;;;7.27;6.63;;;;;;;3.66;89.13;100387.28;5073136;28;20228;-74
2022/04/12 03:23:02;;;;;;;7.73;6.77;;;;;;;3.67;88.83;100388.09;5073116;28;20190;-72
2022/04/12 03:25:28;;;;;;;7.63;6.80;;;;;;;3.77;87.94;100383.53;5072944;28;20181;-74
2022/04/12 03:27:53;;;;;;;8.00;7.27;;;;;;;3.81;87.54;100389.22;5071415;28;20565;-72
2022/04/12 03:30:19;;;;;;;7.77;6.73;;;;;;;3.83;86.40;100384.34;5071398;28;20201;-72
2022/04/12 03:32:44;;;;;;;8.83;6.83;;;;;;;3.92;86.06;100387.34;5072755;28;20245;-73
2022/04/12 03:35:09;;;;;;;7.97;5.83;;;;;;;3.97;85.01;100382.75;5072788;28;20171;-72
2022/04/12 03:37:35;;;;;;;6.67;5.97;;;;;;;4.11;83.22;100375.72;5072481;28;20167;-72
2022/04/12 03:40:01;;;;;;;10.50;5.80;;;;;;;4.30;81.82;100377.88;5072651;28;20186;-72
2022/04/12 03:42:26;;;;;;;7.00;6.33;;;;;;;4.39;80.92;100382.47;5072533;28;20204;-72
2022/04/12 03:44:51;;;;;;;6.23;5.63;;;;;;;4.37;80.91;100373.81;5072539;28;20221;-73
2022/04/12 03:47:17;;;;;;;7.57;6.07;;;;;;;4.39;80.44;100370.84;5071344;28;20579;-72
2022/04/12 03:49:43;;;;;;;5.97;5.37;;;;;;;4.34;81.60;100378.94;5072326;28;20720;-73
2022/04/12 03:52:09;;;;;;;6.97;5.40;;;;;;;4.38;80.16;100377.34;5072594;28;20189;-72
2022/04/12 03:54:35;;;;;;;5.80;5.23;;;;;;;4.36;80.54;100377.63;5072391;28;20656;-72
2022/04/12 03:57:00;;;;;;;6.27;5.67;;;;;;;4.24;80.98;100374.38;5072405;28;20270;-71
2022/04/12 03:59:25;;;;;;;6.23;5.67;;;;;;;4.22;81.31;100381.13;5072219;28;20203;-72
2022/04/12 04:01:51;;;;;;;6.87;6.27;;;;;;;4.05;82.09;100366.00;5072348;28;20178;-72
2022/04/12 04:04:17;;;;;;;5.67;5.17;;;;;;;3.99;83.88;100375.16;5072320;28;20202;-72
2022/04/12 04:06:42;;;;;;;7.50;6.80;;;;;;;3.93;84.82;100378.16;5072015;28;20636;-72
2022/04/12 04:09:07;;;;;;;7.50;6.80;;;;;;;3.74;86.04;100380.53;5072110;28;20190;-72
2022/04/12 04:11:33;;;;;;;7.30;6.53;;;;;;;3.63;86.65;100374.31;5071914;28;20666;-72
2022/04/12 04:14:01;;;;;;;7.47;6.77;;;;;;;3.66;87.15;100381.06;5071961;28;20201;-74
2022/04/12 04:16:27;;;;;;;6.87;6.17;;;;;;;3.62;87.44;100386.22;5071844;28;20591;-71
2022/04/12 04:18:52;;;;;;;7.70;6.07;;;;;;;3.63;87.43;100378.91;5071680;28;20170;-71
2022/04/12 04:21:17;;;;;;;6.30;5.70;;;;;;;3.67;87.58;100380.81;5071935;28;20659;-73
2022/04/12 04:23:43;;;;;;;6.40;5.80;;;;;;;3.65;86.46;100382.16;5071799;28;20695;-75
2022/04/12 04:26:08;;;;;;;5.83;5.40;;;;;;;3.61;86.09;100386.44;5071823;28;20236;-74
2022/04/12 04:28:34;;;;;;;6.93;5.30;;;;;;;3.70;85.75;100384.88;5071731;28;20183;-74
2022/04/12 04:30:59;;;;;;;6.47;5.80;;;;;;;3.72;85.07;100377.28;5071590;28;20202;-73
2022/04/12 04:33:25;;;;;;;6.00;5.50;;;;;;;3.67;85.09;100382.69;5071690;28;20433;-74
2022/04/12 04:35:51;;;;;;;7.07;6.37;;;;;;;3.73;85.31;100395.13;5071632;28;20186;-74
2022/04/12 04:38:16;;;;;;;6.73;5.50;;;;;;;3.71;84.92;100397.28;5071896;28;20666;-71
2022/04/12 04:40:42;;;;;;;9.87;6.00;;;;;;;3.75;84.60;100393.78;5071566;28;20218;-73
2022/04/12 04:43:08;;;;;;;6.07;5.57;;;;;;;3.97;84.83;100396.25;5071377;28;20265;-74
2022/04/12 04:45:34;;;;;;;6.17;5.17;;;;;;;3.89;84.41;100392.19;5069361;28;20182;-74
2022/04/12 04:48:02;;;;;;;6.47;5.87;;;;;;;4.03;84.07;100410.56;5064579;28;20182;-74
2022/04/12 04:50:32;;;;;;;5.70;5.20;;;;;;;4.03;84.68;100405.16;5065095;28;20278;-73
2022/04/12 04:52:59;;;;;;;5.93;5.43;;;;;;;4.11;84.55;100413.56;5071068;28;20182;-74
2022/04/12 04:55:25;;;;;;;7.93;6.00;;;;;;;4.17;84.61;100414.38;5071202;28;20163;-74
2022/04/12 04:57:54;;;;;;;7.43;5.77;;;;;;;4.15;84.63;100417.34;5071264;28;20270;-74
2022/04/12 05:00:22;;;;;;;6.63;6.03;;;;;;;3.79;85.79;100416.50;5070973;28;20253;-74
2022/04/12 05:02:49;;;;;;;6.83;6.23;;;;;;;3.66;86.61;100425.13;5071248;28;20167;-73
2022/04/12 05:05:15;;;;;;;9.60;5.67;;;;;;;3.74;86.02;100426.47;5071215;28;20171;-74
2022/04/12 05:07:43;;;;;;;7.00;5.10;;;;;;;3.82;84.45;100421.38;5070781;28;20645;-74
2022/04/12 05:10:11;;;;;;;5.73;5.20;;;;;;;3.87;83.38;100415.97;5071028;28;20202;-74
2022/04/12 05:12:37;;;;;;;5.40;4.90;;;;;;;3.80;83.08;100412.72;5071133;28;20704;-74
2022/04/12 05:15:02;;;;;;;5.73;5.17;;;;;;;3.84;83.40;100413.00;5070952;28;20261;-74
2022/04/12 05:17:28;;;;;;;5.60;5.10;;;;;;;3.79;83.99;100410.28;5070758;28;20178;-75
2022/04/12 05:19:56;;;;;;;6.73;6.03;;;;;;;3.71;84.27;100411.59;5071022;28;20691;-74
2022/04/12 05:22:23;;;;;;;5.60;5.00;;;;;;;3.65;85.68;100419.97;5071040;28;20182;-73
2022/04/12 05:24:49;;;;;;;6.27;5.50;;;;;;;3.79;85.14;100416.50;5070809;28;20715;-74
2022/04/12 05:27:15;;;;;;;5.40;4.93;;;;;;;4.02;83.38;100428.69;5070731;28;20175;-73
2022/04/12 05:29:40;;;;;;;4.77;4.37;;;;;;;4.18;81.36;100416.81;5070952;28;20202;-74
2022/04/12 05:32:06;;;;;;;5.07;4.67;;;;;;;4.28;80.28;100418.72;5070881;28;20519;-74
2022/04/12 05:34:32;;;;;;;5.97;5.20;;;;;;;4.41;80.05;100412.75;5069562;28;20277;-73
2022/04/12 05:36:57;;;;;;;5.63;5.13;;;;;;;4.43;79.61;100420.59;5069500;28;20252;-73
2022/04/12 05:39:22;;;;;;;6.50;5.40;;;;;;;4.47;79.59;100413.56;5070743;28;20190;-74
2022/04/12 05:41:48;;;;;;;6.70;6.03;;;;;;;4.46;80.60;100412.75;5069436;28;20188;-74
2022/04/12 05:44:13;;;;;;;5.73;5.17;;;;;;;4.47;80.88;100419.78;5070994;28;20578;-73
2022/04/12 05:46:39;;;;;;;6.33;5.73;;;;;;;4.54;80.57;100410.59;5070566;28;20632;-73
2022/04/12 05:49:04;;;;;;;5.33;4.83;;;;;;;4.54;80.71;100400.59;5070524;28;20185;-74
2022/04/12 05:51:29;;;;;;;6.63;6.03;;;;;;;4.54;80.72;100402.47;5070529;28;20293;-74
2022/04/12 05:53:54;;;;;;;6.80;6.03;;;;;;;4.65;81.05;100402.19;5070392;28;20269;-71
2022/04/12 05:56:20;;;;;;;6.90;6.20;;;;;;;4.70;80.65;100404.09;5070595;28;20228;-72
2022/04/12 05:58:45;;;;;;;7.80;6.20;;;;;;;4.76;80.89;100395.66;5070538;28;20179;-73
2022/04/12 06:01:10;;;;;;;8.53;5.63;;;;;;;4.80;80.94;100400.56;5071002;28;20536;-73
2022/04/12 06:03:36;;;;;;;6.40;5.80;;;;;;;4.69;81.15;100392.44;5070582;28;20249;-74
2022/04/12 06:06:01;;;;;;;7.67;6.87;;;;;;;4.76;81.49;100397.56;5070460;28;20681;-74
2022/04/12 06:08:26;;;;;;;6.63;6.13;;;;;;;4.82;81.62;100403.78;5070623;28;20175;-73
2022/04/12 06:10:52;;;;;;;10.63;6.90;;;;;;;4.73;82.15;100398.94;5071624;28;20262;-74
2022/04/12 06:13:18;;;;;;;8.67;6.40;;;;;;;4.85;82.47;100397.81;5074425;28;20691;-74
2022/04/12 06:15:43;;;;;;;7.27;6.67;;;;;;;5.02;82.21;100404.53;5074331;28;20564;-74
2022/04/12 06:18:10;;;;;;;6.20;5.70;;;;;;;5.15;81.75;100402.34;5074165;28;20203;-71
2022/04/12 06:20:36;;;;;;;9.07;5.80;;;;;;;5.23;80.17;100410.72;5074299;28;20171;-71
2022/04/12 06:23:02;;;;;;;7.17;6.33;;;;;;;5.37;80.27;100403.63;5074468;28;20267;-73
2022/04/12 06:25:27;;;;;;;7.93;5.70;;;;;;;5.50;79.36;100401.41;5074392;28;20638;-73
2022/04/12 06:27:53;;;;;;;6.33;5.83;;;;;;;5.61;78.95;100397.53;5072614;28;20228;-74
2022/04/12 06:30:23;;;;;;;6.90;6.07;;;;;;;5.64;78.36;100407.78;5074141;28;20659;-74
2022/04/12 06:32:49;;;;;;;7.43;6.10;;;;;;;5.79;78.59;100409.63;5074096;28;20178;-73
2022/04/12 06:35:15;;;;;;;6.93;6.30;;;;;;;5.83;78.61;100397.13;5070981;28;20538;-73
2022/04/12 06:37:42;;;;;;;7.10;6.50;;;;;;;5.89;78.56;100396.81;5063291;28;20183;-74
2022/04/12 06:40:09;;;;;;;7.30;6.60;;;;;;;5.90;78.82;100401.16;5073946;28;20550;-74
2022/04/12 06:42:35;;;;;;;13.73;7.63;;;;;;;6.02;79.32;100408.97;5073701;28;20630;-75
2022/04/12 06:45:01;;;;;;;8.37;7.00;;;;;;;6.09;79.49;100404.03;5073724;28;20194;-74
2022/04/12 06:47:26;;;;;;;7.93;7.23;;;;;;;6.12;78.81;100402.66;5073586;28;20253;-73
2022/04/12 06:49:52;;;;;;;9.03;6.40;;;;;;;6.23;78.96;100420.47;5073627;28;20181;-73
2022/04/12 06:52:19;;;;;;;7.33;6.63;;;;;;;6.24;79.10;100416.69;5073521;28;20262;-74
2022/04/12 06:54:45;;;;;;;7.77;7.07;;;;;;;6.23;78.09;100426.72;5073423;28;20226;-75
2022/04/12 06:57:11;;;;;;;8.77;7.20;;;;;;;6.29;78.59;100416.63;5073496;28;20641;-73
2022/04/12 06:59:36;;;;;;;9.80;7.30;;;;;;;6.29;78.35;100424.75;5073224;28;20171;-72
2022/04/12 07:02:02;;;;;;;10.93;7.80;;;;;;;6.26;78.63;100425.34;5073445;28;20266;-73
2022/04/12 07:04:28;;;;;;;9.20;8.30;;;;;;;6.23;79.05;100423.19;5073731;28;20270;-72
2022/04/12 07:06:56;;;;;;;9.03;8.13;;;;;;;6.31;80.34;100424.47;5073401;28;20636;-72
2022/04/12 07:09:21;;;;;;;8.70;7.80;;;;;;;6.30;80.30;100431.81;5073307;28;20724;-72
2022/04/12 07:11:47;;;;;;;8.60;7.57;;;;;;;6.33;80.16;100439.38;5073155;28;20210;-73
2022/04/12 07:14:13;;;;;;;8.57;7.87;;;;;;;6.46;80.48;100443.34;5073199;28;20206;-72
2022/04/12 07:16:38;;;;;;;7.30;6.60;;;;;;;6.56;82.36;100435.13;5073166;28;20633;-73
2022/04/12 07:19:04;;;;;;;8.10;7.30;;;;;;;6.57;83.90;100432.13;5072945;28;20653;-73
2022/04/12 07:21:30;;;;;;;8.07;7.27;;;;;;;6.49;84.73;100430.00;5072765;28;20202;-73
2022/04/12 07:23:58;;;;;;;8.47;6.83;;;;;;;6.63;84.90;100426.66;5072946;28;20240;-73
2022/04/12 07:26:27;;;;;;;8.07;7.27;;;;;;;6.75;84.36;100424.38;5072937;28;20390;-73
2022/04/12 07:28:53;;;;;;;10.83;6.73;;;;;;;6.75;83.78;100430.59;5072629;28;20181;-76
2022/04/12 07:31:18;;;;;;;7.77;7.07;;;;;;;7.01;84.52;100424.94;5072762;28;20297;-75
2022/04/12 07:33:44;;;;;;;8.03;7.33;;;;;;;6.99;83.53;100419.78;5070383;28;20193;-77
2022/04/12 07:36:09;;;;;;;8.33;7.53;;;;;;;7.03;82.74;100420.81;5069728;28;20206;-77
2022/04/12 07:38:34;;;;;;;7.43;6.77;;;;;;;7.02;82.56;100427.34;5072434;28;20584;-72
2022/04/12 07:41:00;;;;;;;7.73;7.03;;;;;;;7.10;83.32;100434.88;5072670;28;20206;-72
2022/04/12 07:43:25;;;;;;;6.93;6.43;;;;;;;7.25;83.27;100433.09;5073662;28;20186;-73
2022/04/12 07:45:51;;;;;;;8.10;6.80;;;;;;;7.42;82.23;100441.59;5074975;28;20182;-73
2022/04/12 07:48:16;;;;;;;9.63;7.77;;;;;;;7.55;81.30;100435.44;5072779;28;20177;-72
2022/04/12 07:50:41;;;;;;;7.20;6.60;;;;;;;7.69;81.66;100439.06;5072533;28;20471;-73
2022/04/12 07:53:07;;;;;;;6.67;6.03;;;;;;;8.00;80.40;100441.34;5071923;28;20648;-73
2022/04/12 07:55:32;;;;;;;7.80;7.07;;;;;;;8.21;77.94;100441.84;5072464;28;20245;-74
2022/04/12 07:57:57;;;;;;;8.00;7.30;;;;;;;8.47;76.03;100451.28;5071915;28;20553;-73
2022/04/12 08:00:23;;;;;;;6.87;6.27;;;;;;;8.75;75.43;100443.19;5072127;28;20174;-74
2022/04/12 08:02:49;;;;;;;6.73;6.23;;;;;;;8.71;72.81;100434.00;5071767;28;20182;-74
2022/04/12 08:05:15;;;;;;;6.90;6.23;;;;;;;8.92;73.06;100438.78;5071921;28;20266;-73
2022/04/12 08:07:47;;;;;;;8.20;7.40;;;;;;;9.08;73.34;100427.59;5071357;28;20291;-73
2022/04/12 08:10:13;;;;;;;6.90;6.27;;;;;;;9.28;72.34;100426.41;5071631;28;20268;-73
2022/04/12 08:12:38;;;;;;;6.37;5.77;;;;;;;9.39;70.78;100420.44;5071530;28;20661;-73
2022/04/12 08:15:05;;;;;;;11.50;6.57;;;;;;;9.49;69.70;100420.22;5071397;28;20258;-73
2022/04/12 08:17:31;;;;;;;6.40;5.90;;;;;;;9.56;69.15;100422.56;5071245;28;20194;-73
2022/04/12 08:19:56;;;;;;;6.40;5.87;;;;;;;9.52;69.70;100416.88;5071523;28;20634;-73
2022/04/12 08:22:21;;;;;;;6.43;5.93;;;;;;;9.60;71.43;100418.09;5071459;28;20249;-74
2022/04/12 08:24:46;;;;;;;6.67;5.90;;;;;;;9.74;71.71;100420.81;5071437;28;20194;-73
2022/04/12 08:27:13;;;;;;;6.33;5.40;;;;;;;9.82;71.14;100436.44;5071138;28;20170;-73
2022/04/12 08:29:38;;;;;;;7.70;7.10;;;;;;;9.95;71.10;100427.41;5071057;28;20198;-73
2022/04/12 08:32:04;;;;;;;6.60;6.10;;;;;;;9.84;71.15;100423.31;5071162;28;20228;-73
2022/04/12 08:34:29;;;;;;;7.07;6.37;;;;;;;10.00;71.79;100438.22;5070803;28;20652;-73
2022/04/12 08:36:55;;;;;;;6.37;5.87;;;;;;;9.88;71.21;100426.22;5071194;28;20254;-73
2022/04/12 08:39:20;;;;;;;7.03;6.43;;;;;;;10.05;70.73;100420.94;5070918;28;20269;-73
2022/04/12 08:41:47;;;;;;;6.00;5.47;;;;;;;10.05;70.45;100418.19;5071125;28;20209;-73
2022/04/12 08:44:17;;;;;;;5.63;5.13;;;;;;;10.22;69.60;100412.09;5071544;28;20213;-73
2022/04/12 08:46:46;;;;;;;5.40;5.00;;;;;;;10.25;68.26;100403.28;5070943;28;20206;-73
2022/04/12 08:49:12;;;;;;;6.37;5.77;;;;;;;10.47;68.93;100407.94;5070652;28;20201;-73
2022/04/12 08:51:37;;;;;;;6.37;5.83;;;;;;;10.46;67.90;100400.88;5070769;28;20229;-72
2022/04/12 08:54:04;;;;;;;6.27;5.77;;;;;;;10.63;68.69;100396.31;5070562;28;20171;-73
2022/04/12 08:56:30;;;;;;;5.83;5.33;;;;;;;10.56;67.70;100392.41;5068453;28;20273;-73
2022/04/12 08:58:57;;;;;;;6.20;5.80;;;;;;;10.54;67.73;100395.44;5065961;28;20261;-73
2022/04/12 09:01:22;;;;;;;6.10;5.53;;;;;;;10.65;67.82;100393.25;5067653;28;20185;-73
2022/04/12 09:03:47;;;;;;;6.07;5.57;;;;;;;10.91;67.32;100387.94;5069158;28;20171;-73
2022/04/12 09:06:13;;;;;;;6.40;5.80;;;;;;;10.99;67.00;100385.25;5070896;28;20545;-73
2022/04/12 09:08:39;;;;;;;6.70;6.10;;;;;;;10.92;67.37;100387.63;5069225;28;20183;-73
2022/04/12 09:11:07;;;;;;;6.77;6.17;;;;;;;11.18;68.19;100395.94;5070290;28;20225;-73
2022/04/12 09:13:33;;;;;;;6.10;5.53;;;;;;;11.50;67.75;100393.91;5070516;28;20653;-73
2022/04/12 09:16:00;;;;;;;5.80;5.40;;;;;;;11.57;67.09;100397.81;5067986;28;20206;-72
2022/04/12 09:18:42;;;;;;;6.77;6.27;;;;;;;11.65;66.67;100388.00;5070155;28;20210;-73
2022/04/12 09:21:19;;;;;;;6.40;5.90;;;;;;;11.75;66.09;100386.88;5070203;28;20258;-72
2022/04/12 09:23:49;;;;;;;5.83;5.23;;;;;;;11.77;66.43;100396.38;5070067;28;20189;-71
2022/04/12 09:26:16;;;;;;;6.90;6.30;;;;;;;11.89;65.90;100393.84;5069555;28;20171;-71
2022/04/12 09:28:42;;;;;;;12.03;6.63;;;;;;;12.07;66.83;100389.19;5069899;28;20171;-71
2022/04/12 09:31:16;;;;;;;6.40;5.90;;;;;;;11.86;64.59;100378.06;5070339;28;20198;-71
2022/04/12 09:33:46;;;;;;;6.83;6.23;;;;;;;12.10;64.06;100379.50;5070464;28;20604;-70
2022/04/12 09:36:11;;;;;;;6.33;5.80;;;;;;;12.16;63.88;100370.03;5070252;28;20174;-71
2022/04/12 09:38:39;;;;;;;7.63;6.17;;;;;;;12.39;62.98;100363.19;5069960;28;20178;-73
2022/04/12 09:41:22;;;;;;;5.63;5.00;;;;;;;12.48;61.48;100355.78;5070068;28;20608;-73
2022/04/12 09:43:54;;;;;;;9.83;6.10;;;;;;;12.34;61.69;100357.09;5070450;28;20219;-72
2022/04/12 09:46:20;;;;;;;6.13;5.63;;;;;;;12.35;61.60;100356.75;5074008;28;20192;-72
2022/04/12 09:48:48;;;;;;;6.57;5.57;;;;;;;12.61;62.04;100353.97;5074070;28;20633;-73
2022/04/12 09:51:15;;;;;;;5.57;5.17;;;;;;;12.81;62.82;100353.25;5074184;28;20202;-72
2022/04/12 09:53:45;;;;;;;6.53;5.93;;;;;;;12.77;60.01;100346.00;5074322;28;20653;-71
2022/04/12 09:56:30;;;;;;;5.17;4.77;;;;;;;12.86;55.30;100343.22;5074393;28;20171;-71
2022/04/12 09:59:02;;;;;;;5.93;5.43;;;;;;;12.85;60.46;100345.16;5073916;28;20175;-71
2022/04/12 10:01:28;;;;;;;6.00;5.60;;;;;;;12.94;60.51;100343.19;5074299;28;20175;-71
2022/04/12 10:03:58;;;;;;;6.07;5.57;;;;;;;12.88;60.74;100340.97;5073139;28;20171;-71
2022/04/12 10:06:25;;;;;;;6.03;5.30;;;;;;;13.06;61.49;100337.00;5071474;28;20185;-71
2022/04/12 10:08:59;;;;;;;5.90;5.40;;;;;;;13.16;60.21;100325.66;5074218;28;20181;-72
2022/04/12 10:11:25;;;;;;;6.47;5.90;;;;;;;13.21;60.82;100327.44;5072162;28;20216;-71
2022/04/12 10:13:52;;;;;;;7.20;6.57;;;;;;;13.19;59.92;100321.50;5072914;28;20174;-71
2022/04/12 10:16:20;;;;;;;6.17;5.67;;;;;;;13.40;60.52;100317.63;5073852;28;20175;-71
2022/04/12 10:18:46;;;;;;;6.73;6.13;;;;;;;13.62;60.33;100332.97;5073591;28;20166;-72
2022/04/12 10:21:12;;;;;;;6.23;5.73;;;;;;;13.81;59.07;100318.78;5073602;28;20528;-72
2022/04/12 10:23:41;;;;;;;6.50;6.00;;;;;;;13.81;59.70;100310.53;5073772;28;20167;-71
2022/04/12 10:26:07;;;;;;;6.43;5.83;;;;;;;13.91;59.02;100320.31;5073497;28;20228;-71
2022/04/12 10:28:33;;;;;;;6.53;5.63;;;;;;;13.91;58.28;100307.38;5073248;28;20766;-71
2022/04/12 10:31:03;;;;;;;6.80;6.20;;;;;;;13.95;57.87;100289.09;5073446;28;20206;-71
2022/04/12 10:33:29;;;;;;;7.17;6.57;;;;;;;13.98;58.43;100291.16;5073630;28;20650;-71
2022/04/12 10:35:55;;;;;;;6.57;5.87;;;;;;;14.13;58.22;100295.22;5073705;28;20518;-71
2022/04/12 10:38:37;;;;;;;6.20;5.67;;;;;;;14.28;59.29;100283.56;5073174;28;20182;-71
2022/04/12 10:41:12;;;;;;;6.30;5.80;;;;;;;14.45;57.58;100277.09;5072980;28;20171;-71
2022/04/12 10:43:39;;;;;;;6.20;5.60;;;;;;;14.57;58.14;100279.06;5073370;28;20178;-71
2022/04/12 10:46:06;;;;;;;7.20;6.47;;;;;;;14.43;57.26;100273.84;5073380;28;20171;-71
2022/04/12 10:48:33;;;;;;;6.30;5.80;;;;;;;14.37;57.09;100272.50;5072826;28;20633;-71
2022/04/12 10:51:00;;;;;;;6.23;5.73;;;;;;;14.45;55.93;100273.53;5073138;28;20206;-71
2022/04/12 10:53:38;;;;;;;6.10;5.60;;;;;;;14.57;56.99;100282.63;5073539;28;20177;-71
2022/04/12 10:56:14;;;;;;;6.70;6.20;;;;;;;14.72;56.59;100272.88;5072537;28;20167;-72
2022/04/12 10:58:40;;;;;;;6.83;6.23;;;;;;;15.00;57.39;100274.94;5072511;28;20537;-71
2022/04/12 11:01:10;;;;;;;6.93;6.33;;;;;;;15.10;57.33;100277.25;5072056;28;20179;-71
2022/04/12 11:03:41;;;;;;;7.70;7.00;;;;;;;15.00;56.30;100273.00;5069579;28;20189;-71
2022/04/12 11:06:10;;;;;;;7.33;6.83;;;;;;;15.19;57.72;100272.44;5071500;28;20187;-72
2022/04/12 11:08:36;;;;;;;7.27;6.67;;;;;;;14.81;55.90;100270.84;5071713;28;20218;-72
2022/04/12 11:11:01;;;;;;;8.03;7.23;;;;;;;14.84;57.13;100272.91;5068015;28;20597;-71
2022/04/12 11:13:31;;;;;;;7.50;6.90;;;;;;;15.19;57.26;100272.44;5072005;28;20179;-71
2022/04/12 11:15:59;;;;;;;8.10;7.30;;;;;;;15.27;56.72;100274.22;5071416;28;20182;-71
2022/04/12 11:18:54;;;;;;;9.27;7.37;;;;;;;15.59;57.59;100266.13;5072104;28;20182;-72
2022/04/12 11:21:43;;;;;;;8.40;7.70;;;;;;;15.64;57.69;100260.41;5065529;28;20170;-71
2022/04/12 11:24:12;;;;;;;8.17;7.37;;;;;;;15.73;56.04;100255.53;5071635;28;20182;-71
2022/04/12 11:26:37;;;;;;;7.73;7.07;;;;;;;15.92;56.62;100247.44;5072001;28;20221;-72
2022/04/12 11:29:13;;;;;;;8.60;7.90;;;;;;;15.98;56.18;100240.50;5069344;28;20206;-71
2022/04/12 11:31:59;;;;;;;8.27;7.57;;;;;;;15.93;56.75;100242.72;5071895;28;20268;-71